createdAt,value
2018-11-05T00:00:28.920Z,2.73
2018-11-05T00:03:31.704Z,2.60
2018-11-05T00:06:34.479Z,2.83
2018-11-05T00:09:37.472Z,2.57
2018-11-05T00:12:40.396Z,2.80
2018-11-05T00:15:43.039Z,2.43
2018-11-05T00:18:45.773Z,2.40
2018-11-05T00:21:48.920Z,2.20
2018-11-05T00:24:51.636Z,2.27
2018-11-05T00:27:54.298Z,2.70
2018-11-05T00:30:56.968Z,2.60
2018-11-05T00:33:59.637Z,2.67
2018-11-05T00:37:02.263Z,2.83
2018-11-05T00:40:07.853Z,3.07
2018-11-05T00:43:10.505Z,2.17
2018-11-05T00:46:13.233Z,3.20
2018-11-05T00:49:15.876Z,2.40
2018-11-05T00:52:19.423Z,2.30
2018-11-05T00:55:22.113Z,2.53
2018-11-05T00:58:24.771Z,2.27
2018-11-05T01:01:27.671Z,2.57
2018-11-05T01:04:30.309Z,2.17
2018-11-05T01:07:32.936Z,2.57
2018-11-05T01:10:40.990Z,2.93
2018-11-05T01:13:58.678Z,3.63
2018-11-05T01:17:04.510Z,3.33
2018-11-05T01:20:08.241Z,2.13
2018-11-05T01:23:16.429Z,1.83
2018-11-05T01:26:32.067Z,2.00
2018-11-05T01:29:34.800Z,2.43
2018-11-05T01:32:37.577Z,2.40
2018-11-05T01:35:40.528Z,2.27
2018-11-05T01:38:44.572Z,2.30
2018-11-05T01:41:47.175Z,2.20
2018-11-05T01:44:49.797Z,2.43
2018-11-05T01:47:53.162Z,2.47
2018-11-05T01:50:55.798Z,2.13
2018-11-05T01:53:58.461Z,2.07
2018-11-05T01:57:01.123Z,2.60
2018-11-05T02:00:05.774Z,2.73
2018-11-05T02:03:09.099Z,2.37
2018-11-05T02:06:12.753Z,2.80
2018-11-05T02:09:15.365Z,3.03
2018-11-05T02:12:17.963Z,2.73
2018-11-05T02:15:20.884Z,2.57
2018-11-05T02:18:23.487Z,2.43
2018-11-05T02:21:26.131Z,2.53
2018-11-05T02:24:28.721Z,2.90
2018-11-05T02:27:31.485Z,3.03
2018-11-05T02:30:34.140Z,3.00
2018-11-05T02:33:36.819Z,2.50
2018-11-05T02:36:40.368Z,2.40
2018-11-05T02:39:43.206Z,2.90
2018-11-05T02:42:46.429Z,2.87
2018-11-05T02:45:49.262Z,2.67
2018-11-05T02:48:51.942Z,3.03
2018-11-05T02:51:54.756Z,2.40
2018-11-05T02:54:57.529Z,3.27
2018-11-05T02:58:00.259Z,3.13
2018-11-05T03:01:03.110Z,3.10
2018-11-05T03:04:05.975Z,3.07
2018-11-05T03:07:08.700Z,2.67
2018-11-05T03:10:12.054Z,2.80
2018-11-05T03:13:14.804Z,2.83
2018-11-05T03:16:17.495Z,3.03
2018-11-05T03:19:20.621Z,3.23
2018-11-05T03:22:23.477Z,3.37
2018-11-05T03:25:26.194Z,3.53
2018-11-05T03:28:29.045Z,3.13
2018-11-05T03:31:31.781Z,3.30
2018-11-05T03:34:34.496Z,3.97
2018-11-05T03:37:38.276Z,3.70
2018-11-05T03:40:40.973Z,3.50
2018-11-05T03:43:44.236Z,4.27
2018-11-05T03:46:47.031Z,3.30
2018-11-05T03:49:49.758Z,4.30
2018-11-05T03:52:52.529Z,3.90
2018-11-05T03:55:55.276Z,4.00
2018-11-05T03:58:58.436Z,4.23
2018-11-05T04:02:01.371Z,3.73
2018-11-05T04:05:04.795Z,4.40
2018-11-05T04:08:07.484Z,4.07
2018-11-05T04:11:10.163Z,4.10
2018-11-05T04:14:12.849Z,4.20
2018-11-05T04:17:15.643Z,4.83
2018-11-05T04:20:18.424Z,4.00
2018-11-05T04:23:21.177Z,4.03
2018-11-05T04:26:23.851Z,3.93
2018-11-05T04:29:26.567Z,3.90
2018-11-05T04:32:29.333Z,3.77
2018-11-05T04:35:32.047Z,5.23
2018-11-05T04:38:35.432Z,4.50
2018-11-05T04:41:39.031Z,4.33
2018-11-05T04:44:41.807Z,4.30
2018-11-05T04:47:44.548Z,3.53
2018-11-05T04:50:47.308Z,4.83
2018-11-05T04:53:50.011Z,4.50
2018-11-05T04:56:52.803Z,4.50
2018-11-05T04:59:55.634Z,4.13
2018-11-05T05:02:58.440Z,5.33
2018-11-05T05:06:01.289Z,4.30
2018-11-05T05:09:08.045Z,4.50
2018-11-05T05:12:10.820Z,5.07
2018-11-05T05:15:13.567Z,4.93
2018-11-05T05:18:16.261Z,4.97
2018-11-05T05:21:19.077Z,4.87
2018-11-05T05:24:21.912Z,4.03
2018-11-05T05:27:24.894Z,5.00
2018-11-05T05:30:27.915Z,4.70
2018-11-05T05:33:30.675Z,5.77
2018-11-05T05:36:33.403Z,5.67
2018-11-05T05:39:37.102Z,5.30
2018-11-05T05:42:40.381Z,5.17
2018-11-05T05:45:43.317Z,4.33
2018-11-05T05:48:46.146Z,5.03
2018-11-05T05:51:48.892Z,4.87
2018-11-05T05:54:51.653Z,4.97
2018-11-05T05:57:54.329Z,5.13
2018-11-05T06:00:57.056Z,6.07
2018-11-05T06:03:59.848Z,4.10
2018-11-05T06:07:02.578Z,5.60
2018-11-05T06:10:05.588Z,4.73
2018-11-05T06:13:08.455Z,5.33
2018-11-05T06:16:12.244Z,4.73
2018-11-05T06:19:15.342Z,4.73
2018-11-05T06:22:18.187Z,4.17
2018-11-05T06:25:21.019Z,5.33
2018-11-05T06:28:23.790Z,4.63
2018-11-05T06:31:27.394Z,4.37
2018-11-05T06:34:30.116Z,4.80
2018-11-05T06:37:32.920Z,5.50
2018-11-05T06:40:35.826Z,4.53
2018-11-05T06:43:38.659Z,4.67
2018-11-05T06:46:42.090Z,5.17
2018-11-05T06:49:44.770Z,4.93
2018-11-05T06:52:47.735Z,5.53
2018-11-05T06:55:50.319Z,5.00
2018-11-05T06:58:53.029Z,5.17
2018-11-05T07:01:55.742Z,5.40
2018-11-05T07:04:58.507Z,4.67
2018-11-05T07:08:02.301Z,4.80
2018-11-05T07:11:05.123Z,4.90
2018-11-05T07:14:08.615Z,5.03
2018-11-05T07:17:11.327Z,5.13
2018-11-05T07:20:15.374Z,4.87
2018-11-05T07:23:18.132Z,4.80
2018-11-05T07:26:21.887Z,5.17
2018-11-05T07:29:24.578Z,5.83
2018-11-05T07:32:27.272Z,5.37
2018-11-05T07:35:29.987Z,5.10
2018-11-05T07:38:32.946Z,5.70
2018-11-05T07:41:35.952Z,4.77
2018-11-05T07:44:38.635Z,4.90
2018-11-05T07:47:44.310Z,5.07
2018-11-05T07:50:48.200Z,4.57
2018-11-05T07:53:59.165Z,4.50
2018-11-05T07:57:01.830Z,5.13
2018-11-05T08:00:12.123Z,4.60
2018-11-05T08:03:15.407Z,4.97
2018-11-05T08:06:18.909Z,5.57
2018-11-05T08:09:21.601Z,4.40
2018-11-05T08:12:24.268Z,5.10
2018-11-05T08:15:27.544Z,4.67
2018-11-05T08:18:30.321Z,4.47
2018-11-05T08:21:33.002Z,4.57
2018-11-05T08:24:35.731Z,4.30
2018-11-05T08:27:39.412Z,4.77
2018-11-05T08:30:42.053Z,4.40
2018-11-05T08:33:44.678Z,5.30
2018-11-05T08:36:47.302Z,4.33
2018-11-05T08:39:49.957Z,4.17
2018-11-05T08:42:53.559Z,4.40
2018-11-05T08:45:56.130Z,4.33
2018-11-05T08:48:58.680Z,4.00
2018-11-05T08:52:01.469Z,4.50
2018-11-05T08:55:04.895Z,4.40
2018-11-05T08:58:07.494Z,4.27
2018-11-05T09:01:15.972Z,4.90
2018-11-05T09:04:18.568Z,4.83
2018-11-05T09:07:21.509Z,4.73
2018-11-05T09:10:24.294Z,3.83
2018-11-05T09:13:26.755Z,4.20
2018-11-05T09:16:29.351Z,4.10
2018-11-05T09:19:32.012Z,4.27
2018-11-05T09:22:34.635Z,4.57
2018-11-05T09:25:37.246Z,4.60
2018-11-05T09:28:39.864Z,3.80
2018-11-05T09:31:43.004Z,4.13
2018-11-05T09:34:45.627Z,3.77
2018-11-05T09:37:48.187Z,3.53
2018-11-05T09:40:50.802Z,4.17
2018-11-05T09:43:53.431Z,4.70
2018-11-05T09:46:56.084Z,3.47
2018-11-05T09:49:58.720Z,3.93
2018-11-05T09:53:01.405Z,4.30
2018-11-05T09:56:04.144Z,3.60
2018-11-05T09:59:06.841Z,4.47
2018-11-05T10:02:09.451Z,4.77
2018-11-05T10:05:13.340Z,3.63
2018-11-05T10:08:16.415Z,3.73
2018-11-05T10:11:19.397Z,3.13
2018-11-05T10:14:22.111Z,3.50
2018-11-05T10:17:25.323Z,3.63
2018-11-05T10:20:28.481Z,3.90
2018-11-05T10:23:31.124Z,3.87
2018-11-05T10:26:33.754Z,3.37
2018-11-05T10:29:37.118Z,3.90
2018-11-05T10:32:40.016Z,3.60
2018-11-05T10:35:48.343Z,3.47
2018-11-05T10:38:50.898Z,4.43
2018-11-05T10:41:53.524Z,4.03
2018-11-05T10:44:56.118Z,3.97
2018-11-05T10:47:58.959Z,3.80
2018-11-05T10:51:01.862Z,3.90
2018-11-05T10:54:04.698Z,4.30
2018-11-05T10:57:07.393Z,3.50
2018-11-05T11:01:20.880Z,3.40
2018-11-05T11:04:29.234Z,3.87
2018-11-05T11:07:31.740Z,4.03
2018-11-05T11:10:34.396Z,4.00
2018-11-05T11:13:37.041Z,3.73
2018-11-05T11:16:39.604Z,3.83
2018-11-05T11:19:42.494Z,4.10
2018-11-05T11:22:45.216Z,3.60
2018-11-05T11:25:47.944Z,3.90
2018-11-05T11:28:50.676Z,3.97
2018-11-05T11:31:53.425Z,4.07
2018-11-05T11:34:56.117Z,3.60
2018-11-05T11:37:59.305Z,3.73
2018-11-05T11:41:03.035Z,3.77
2018-11-05T11:44:05.818Z,3.60
2018-11-05T11:47:09.152Z,3.70
2018-11-05T11:50:13.123Z,3.37
2018-11-05T11:53:16.790Z,3.43
2018-11-05T11:56:19.410Z,4.00
2018-11-05T11:59:22.836Z,3.47
2018-11-05T12:02:25.430Z,4.17
2018-11-05T12:05:28.115Z,3.60
2018-11-05T12:08:30.691Z,5.23
2018-11-05T12:11:33.319Z,4.20
2018-11-05T12:14:36.032Z,3.73
2018-11-05T12:17:39.280Z,3.57
2018-11-05T12:20:41.899Z,4.00
2018-11-05T12:23:45.564Z,3.63
2018-11-05T12:26:48.129Z,3.87
2018-11-05T12:29:50.867Z,3.23
2018-11-05T12:32:54.172Z,3.83
2018-11-05T12:35:56.750Z,3.70
2018-11-05T12:38:59.368Z,3.77
2018-11-05T12:42:01.990Z,4.03
2018-11-05T12:45:06.115Z,3.50
2018-11-05T12:48:08.679Z,3.47
2018-11-05T12:51:11.264Z,4.47
2018-11-05T12:54:14.145Z,4.10
2018-11-05T12:57:16.709Z,4.47
2018-11-05T13:00:20.994Z,4.57
2018-11-05T13:03:24.197Z,4.30
2018-11-05T13:06:26.877Z,3.77
2018-11-05T13:09:29.463Z,4.30
2018-11-05T13:12:32.310Z,3.87
2018-11-05T13:15:34.904Z,4.17
2018-11-05T13:18:37.573Z,4.33
2018-11-05T13:21:40.187Z,3.97
2018-11-05T13:24:42.799Z,4.13
2018-11-05T13:27:46.870Z,3.87
2018-11-05T13:30:49.391Z,4.73
2018-11-05T13:33:52.019Z,4.33
2018-11-05T13:36:54.742Z,4.43
2018-11-05T13:39:57.268Z,4.60
2018-11-05T13:42:59.886Z,4.20
2018-11-05T13:46:03.163Z,4.50
2018-11-05T13:49:06.404Z,4.73
2018-11-05T13:52:08.712Z,4.93
2018-11-05T13:55:13.562Z,4.63
2018-11-05T13:58:16.304Z,4.17
2018-11-05T14:01:19.108Z,4.70
2018-11-05T14:04:21.906Z,4.93
2018-11-05T14:07:24.644Z,4.20
2018-11-05T14:10:27.420Z,4.40
2018-11-05T14:13:30.121Z,4.00
2018-11-05T14:16:32.944Z,4.03
2018-11-05T14:19:36.205Z,3.77
2018-11-05T14:22:38.944Z,3.70
2018-11-05T14:25:42.926Z,4.17
2018-11-05T14:28:46.741Z,3.90
2018-11-05T14:31:49.275Z,4.43
2018-11-05T14:34:51.965Z,3.87
2018-11-05T14:37:54.676Z,4.17
2018-11-05T14:40:57.365Z,3.80
2018-11-05T14:44:00.153Z,3.80
2018-11-05T14:47:02.888Z,4.10
2018-11-05T14:50:08.431Z,4.20
2018-11-05T14:53:11.105Z,4.70
2018-11-05T14:56:13.853Z,4.40
2018-11-05T14:59:16.617Z,5.07
2018-11-05T15:02:25.034Z,4.70
2018-11-05T15:05:27.880Z,5.37
2018-11-05T15:08:31.259Z,5.03
2018-11-05T15:11:33.929Z,5.27
2018-11-05T15:14:36.763Z,5.43
2018-11-05T15:17:39.803Z,5.13
2018-11-05T15:20:43.617Z,6.20
2018-11-05T15:23:46.416Z,5.87
2018-11-05T15:26:49.225Z,6.33
2018-11-05T15:29:52.007Z,7.00
2018-11-05T15:32:54.742Z,6.67
2018-11-05T15:35:57.460Z,7.30
2018-11-05T15:39:00.144Z,7.07
2018-11-05T15:42:03.571Z,7.13
2018-11-05T15:45:07.610Z,7.13
2018-11-05T15:48:10.259Z,6.67
2018-11-05T15:51:13.093Z,7.50
2018-11-05T15:54:15.546Z,8.17
2018-11-05T15:57:18.215Z,7.20
2018-11-05T16:00:23.055Z,7.50
2018-11-05T16:03:25.630Z,7.27
2018-11-05T16:09:42.463Z,7.43
2018-11-05T16:12:45.863Z,7.97
2018-11-05T16:15:48.669Z,7.43
2018-11-05T16:18:51.938Z,7.37
2018-11-05T16:21:54.993Z,8.00
2018-11-05T16:24:57.622Z,8.17
2018-11-05T16:28:00.182Z,7.33
2018-11-05T16:31:03.546Z,7.63
2018-11-05T16:34:06.121Z,7.23
2018-11-05T16:37:08.806Z,8.23
2018-11-05T16:40:13.955Z,7.90
2018-11-05T16:43:16.474Z,11.70
2018-11-05T16:46:19.056Z,7.87
2018-11-05T16:49:21.747Z,7.67
2018-11-05T16:52:24.333Z,7.40
2018-11-05T16:55:26.947Z,7.20
2018-11-05T16:58:29.556Z,8.17
2018-11-05T17:01:32.469Z,8.30
2018-11-05T17:04:34.746Z,8.07
2018-11-05T17:07:37.427Z,7.73
2018-11-05T17:10:40.072Z,7.80
2018-11-05T17:13:42.799Z,8.93
2018-11-05T17:16:45.504Z,7.00
2018-11-05T17:19:48.155Z,8.73
2018-11-05T17:22:50.806Z,8.50
2018-11-05T17:25:53.426Z,11.23
2018-11-05T17:28:56.604Z,17.77
2018-11-05T17:32:00.057Z,20.13
2018-11-05T17:35:03.456Z,21.93
2018-11-05T17:38:06.276Z,16.77
2018-11-05T17:41:08.915Z,11.37
2018-11-05T17:44:12.377Z,9.03
2018-11-05T17:47:14.980Z,7.90
2018-11-05T17:50:20.509Z,7.30
2018-11-05T17:53:23.172Z,6.80
2018-11-05T17:56:26.487Z,6.30
2018-11-05T17:59:29.216Z,6.93
2018-11-05T18:02:31.888Z,6.77
2018-11-05T18:05:34.477Z,6.87
2018-11-05T18:08:37.196Z,6.33
2018-11-05T18:11:39.888Z,6.83
2018-11-05T18:14:42.685Z,7.03
2018-11-05T18:17:47.787Z,6.40
2018-11-05T18:20:51.082Z,6.40
2018-11-05T18:23:53.845Z,6.13
2018-11-05T18:26:56.759Z,6.57
2018-11-05T18:29:59.626Z,6.77
2018-11-05T19:27:04.745Z,8.20
2018-11-05T19:30:17.509Z,8.03
2018-11-05T19:33:20.604Z,7.03
2018-11-05T19:36:23.265Z,7.57
2018-11-05T19:39:26.021Z,7.37
2018-11-05T19:42:29.219Z,7.43
2018-11-05T19:45:31.633Z,8.17
2018-11-05T19:48:37.388Z,8.00
2018-11-05T19:51:43.296Z,8.07
2018-11-05T19:54:58.871Z,8.07
2018-11-05T19:58:01.727Z,8.27
2018-11-05T20:01:05.121Z,7.60
2018-11-05T20:04:19.870Z,7.70
2018-11-05T20:07:25.998Z,8.40
2018-11-05T20:10:38.530Z,9.20
2018-11-05T20:13:41.357Z,8.37
2018-11-05T20:16:44.355Z,9.50
2018-11-05T20:23:27.378Z,9.03
2018-11-05T20:26:30.387Z,8.67
2018-11-05T20:29:33.027Z,9.07
2018-11-05T20:32:37.355Z,9.03
2018-11-05T20:35:41.939Z,9.30
2018-11-05T20:38:48.921Z,8.80
2018-11-05T20:42:07.203Z,9.43
2018-11-05T20:45:10.433Z,8.93
2018-11-05T20:48:13.384Z,9.47
2018-11-05T20:51:16.510Z,9.17
2018-11-05T20:54:25.417Z,9.47
2018-11-05T20:57:39.705Z,9.57
2018-11-05T21:00:42.969Z,9.57
2018-11-05T21:07:24.437Z,10.17
2018-11-05T21:10:27.489Z,9.30
2018-11-05T21:13:30.195Z,10.07
2018-11-05T21:16:36.024Z,11.57
2018-11-05T21:19:40.627Z,10.63
2018-11-05T21:22:44.435Z,10.73
2018-11-05T21:25:47.291Z,11.07
2018-11-05T21:28:51.315Z,12.40
2018-11-05T21:31:54.397Z,11.27
2018-11-05T21:34:57.476Z,10.70
2018-11-05T21:38:00.562Z,11.90
2018-11-05T21:41:03.547Z,11.87
2018-11-05T21:44:08.484Z,13.43
2018-11-05T21:47:11.901Z,12.40
2018-11-05T21:50:17.880Z,12.87
2018-11-05T21:53:21.189Z,13.10
2018-11-05T21:56:27.944Z,12.53
2018-11-05T21:59:42.570Z,12.67
2018-11-05T22:02:50.989Z,12.90
2018-11-05T22:05:54.299Z,12.33
2018-11-05T22:09:00.113Z,12.17
2018-11-05T22:12:04.331Z,13.37
2018-11-05T22:15:07.448Z,13.83
2018-11-05T22:18:10.451Z,13.50
2018-11-05T22:21:13.635Z,13.50
2018-11-05T22:24:17.081Z,12.80
2018-11-05T22:27:22.133Z,12.97
2018-11-05T22:30:33.491Z,11.97
2018-11-05T22:33:43.089Z,13.33
2018-11-05T22:36:47.017Z,13.20
2018-11-05T22:39:51.693Z,13.50
2018-11-05T22:42:55.101Z,12.83
2018-11-05T22:45:58.594Z,12.67
2018-11-05T22:49:05.810Z,13.50
2018-11-05T22:52:24.931Z,13.40
2018-11-05T22:58:59.044Z,13.23
2018-11-05T23:02:09.514Z,12.67
2018-11-05T23:05:20.419Z,13.77
2018-11-05T23:08:24.956Z,14.40
2018-11-05T23:11:43.429Z,13.63
2018-11-05T23:14:48.005Z,12.83
2018-11-05T23:21:13.492Z,13.67
2018-11-05T23:27:38.996Z,13.67
2018-11-05T23:30:42.550Z,13.90
2018-11-05T23:33:47.684Z,13.83
2018-11-05T23:36:50.955Z,13.20
2018-11-05T23:40:01.499Z,14.27
2018-11-05T23:43:14.762Z,13.43
2018-11-05T23:46:20.566Z,14.00
2018-11-05T23:49:34.131Z,13.97
2018-11-05T23:52:46.498Z,14.77
2018-11-05T23:56:12.912Z,13.67
2018-11-05T23:59:19.934Z,15.07
